sensor_id;sensor_type;location;lat;lon;timestamp;P1;durP1;ratioP1;P2;durP2;ratioP2
19617;SDS011;9956;51.006;13.670;2023-12-04T00:03:28;28.08;;;15.70;;
19617;SDS011;9956;51.006;13.670;2023-12-04T00:08:29;27.35;;;15.73;;
19617;SDS011;9956;51.006;13.670;2023-12-04T00:13:29;27.83;;;15.93;;
19617;SDS011;9956;51.006;13.670;2023-12-04T00:18:30;24.88;;;14.25;;
19617;SDS011;9956;51.006;13.670;2023-12-04T00:23:30;26.92;;;15.00;;
19617;SDS011;9956;51.006;13.670;2023-12-04T00:28:31;28.08;;;13.80;;
19617;SDS011;9956;51.006;13.670;2023-12-04T00:33:31;31.50;;;16.50;;
19617;SDS011;9956;51.006;13.670;2023-12-04T00:38:32;26.27;;;14.90;;
19617;SDS011;9956;51.006;13.670;2023-12-04T00:43:32;23.85;;;14.35;;
19617;SDS011;9956;51.006;13.670;2023-12-04T00:48:33;27.35;;;13.85;;
19617;SDS011;9956;51.006;13.670;2023-12-04T00:53:33;24.15;;;14.48;;
19617;SDS011;9956;51.006;13.670;2023-12-04T00:58:34;26.33;;;14.25;;
19617;SDS011;9956;51.006;13.670;2023-12-04T01:03:34;28.25;;;14.77;;
19617;SDS011;9956;51.006;13.670;2023-12-04T01:08:34;28.20;;;15.43;;
19617;SDS011;9956;51.006;13.670;2023-12-04T01:13:35;25.20;;;14.38;;
19617;SDS011;9956;51.006;13.670;2023-12-04T01:18:35;25.05;;;14.60;;
19617;SDS011;9956;51.006;13.670;2023-12-04T01:23:36;24.02;;;13.95;;
19617;SDS011;9956;51.006;13.670;2023-12-04T01:28:36;22.03;;;12.97;;
19617;SDS011;9956;51.006;13.670;2023-12-04T01:40:03;23.33;;;12.67;;
19617;SDS011;9956;51.006;13.670;2023-12-04T01:45:07;21.00;;;11.57;;
19617;SDS011;9956;51.006;13.670;2023-12-04T01:50:08;19.33;;;11.40;;
19617;SDS011;9956;51.006;13.670;2023-12-04T01:55:09;19.13;;;10.57;;
19617;SDS011;9956;51.006;13.670;2023-12-04T02:00:10;21.37;;;10.77;;
19617;SDS011;9956;51.006;13.670;2023-12-04T02:05:12;19.97;;;10.23;;
19617;SDS011;9956;51.006;13.670;2023-12-04T02:10:13;18.17;;;10.48;;
19617;SDS011;9956;51.006;13.670;2023-12-04T02:15:13;17.10;;;9.83;;
19617;SDS011;9956;51.006;13.670;2023-12-04T02:20:14;19.83;;;11.07;;
19617;SDS011;9956;51.006;13.670;2023-12-04T02:25:15;16.45;;;9.45;;
19617;SDS011;9956;51.006;13.670;2023-12-04T02:30:16;18.15;;;10.70;;
19617;SDS011;9956;51.006;13.670;2023-12-04T02:35:22;17.10;;;10.07;;
19617;SDS011;9956;51.006;13.670;2023-12-04T02:40:23;19.90;;;10.70;;
19617;SDS011;9956;51.006;13.670;2023-12-04T02:45:24;14.47;;;9.63;;
19617;SDS011;9956;51.006;13.670;2023-12-04T02:50:25;16.00;;;10.30;;
19617;SDS011;9956;51.006;13.670;2023-12-04T02:55:25;16.95;;;10.13;;
19617;SDS011;9956;51.006;13.670;2023-12-04T03:00:26;18.53;;;10.50;;
19617;SDS011;9956;51.006;13.670;2023-12-04T03:05:29;17.20;;;9.43;;
19617;SDS011;9956;51.006;13.670;2023-12-04T03:10:29;15.80;;;9.27;;
19617;SDS011;9956;51.006;13.670;2023-12-04T03:15:30;18.03;;;10.50;;
19617;SDS011;9956;51.006;13.670;2023-12-04T03:20:32;14.90;;;8.93;;
19617;SDS011;9956;51.006;13.670;2023-12-04T03:25:32;15.30;;;10.07;;
19617;SDS011;9956;51.006;13.670;2023-12-04T03:30:33;17.20;;;10.13;;
19617;SDS011;9956;51.006;13.670;2023-12-04T03:35:33;17.47;;;10.23;;
19617;SDS011;9956;51.006;13.670;2023-12-04T03:40:34;15.07;;;9.10;;
19617;SDS011;9956;51.006;13.670;2023-12-04T03:45:34;14.10;;;8.53;;
19617;SDS011;9956;51.006;13.670;2023-12-04T03:50:35;15.80;;;8.40;;
19617;SDS011;9956;51.006;13.670;2023-12-04T03:55:35;13.53;;;8.00;;
19617;SDS011;9956;51.006;13.670;2023-12-04T04:00:35;14.15;;;8.90;;
19617;SDS011;9956;51.006;13.670;2023-12-04T04:05:36;14.27;;;8.50;;
19617;SDS011;9956;51.006;13.670;2023-12-04T04:10:36;14.37;;;8.57;;
19617;SDS011;9956;51.006;13.670;2023-12-04T04:15:37;15.50;;;9.33;;
19617;SDS011;9956;51.006;13.670;2023-12-04T04:20:37;8.57;;;6.40;;
19617;SDS011;9956;51.006;13.670;2023-12-04T04:25:38;14.25;;;8.80;;
19617;SDS011;9956;51.006;13.670;2023-12-04T04:30:38;13.10;;;8.17;;
19617;SDS011;9956;51.006;13.670;2023-12-04T04:35:40;13.13;;;9.00;;
19617;SDS011;9956;51.006;13.670;2023-12-04T04:40:40;14.53;;;8.77;;
19617;SDS011;9956;51.006;13.670;2023-12-04T04:45:43;14.43;;;9.50;;
19617;SDS011;9956;51.006;13.670;2023-12-04T04:50:44;15.07;;;8.87;;
19617;SDS011;9956;51.006;13.670;2023-12-04T04:55:44;13.80;;;8.70;;
19617;SDS011;9956;51.006;13.670;2023-12-04T05:00:45;17.87;;;8.90;;
19617;SDS011;9956;51.006;13.670;2023-12-04T05:05:46;10.97;;;7.10;;
19617;SDS011;9956;51.006;13.670;2023-12-04T05:10:47;18.13;;;11.67;;
19617;SDS011;9956;51.006;13.670;2023-12-04T05:15:47;15.57;;;9.20;;
19617;SDS011;9956;51.006;13.670;2023-12-04T05:20:51;16.33;;;9.10;;
19617;SDS011;9956;51.006;13.670;2023-12-04T05:25:51;14.77;;;8.90;;
19617;SDS011;9956;51.006;13.670;2023-12-04T05:30:52;12.27;;;7.15;;
19617;SDS011;9956;51.006;13.670;2023-12-04T05:35:52;13.05;;;9.02;;
19617;SDS011;9956;51.006;13.670;2023-12-04T05:40:53;16.13;;;9.77;;
19617;SDS011;9956;51.006;13.670;2023-12-04T05:45:54;12.60;;;8.32;;
19617;SDS011;9956;51.006;13.670;2023-12-04T05:50:55;14.25;;;9.68;;
19617;SDS011;9956;51.006;13.670;2023-12-04T05:55:55;14.57;;;9.50;;
19617;SDS011;9956;51.006;13.670;2023-12-04T06:00:59;30.88;;;17.60;;
19617;SDS011;9956;51.006;13.670;2023-12-04T06:05:59;15.00;;;9.52;;
19617;SDS011;9956;51.006;13.670;2023-12-04T06:11:00;12.10;;;8.97;;
19617;SDS011;9956;51.006;13.670;2023-12-04T06:16:00;14.70;;;8.90;;
19617;SDS011;9956;51.006;13.670;2023-12-04T06:21:01;14.00;;;8.27;;
19617;SDS011;9956;51.006;13.670;2023-12-04T06:26:02;13.55;;;8.60;;
19617;SDS011;9956;51.006;13.670;2023-12-04T06:31:03;17.30;;;9.23;;
19617;SDS011;9956;51.006;13.670;2023-12-04T06:36:04;15.93;;;9.55;;
19617;SDS011;9956;51.006;13.670;2023-12-04T06:41:06;16.50;;;10.30;;
19617;SDS011;9956;51.006;13.670;2023-12-04T06:46:08;17.05;;;10.73;;
19617;SDS011;9956;51.006;13.670;2023-12-04T06:51:09;14.48;;;8.98;;
19617;SDS011;9956;51.006;13.670;2023-12-04T06:56:09;14.98;;;9.07;;
19617;SDS011;9956;51.006;13.670;2023-12-04T07:01:10;16.27;;;10.57;;
19617;SDS011;9956;51.006;13.670;2023-12-04T07:06:11;15.77;;;9.25;;
19617;SDS011;9956;51.006;13.670;2023-12-04T07:11:11;15.65;;;10.02;;
19617;SDS011;9956;51.006;13.670;2023-12-04T07:16:14;20.58;;;13.48;;
19617;SDS011;9956;51.006;13.670;2023-12-04T07:21:14;18.33;;;12.27;;
19617;SDS011;9956;51.006;13.670;2023-12-04T07:26:15;19.52;;;12.80;;
19617;SDS011;9956;51.006;13.670;2023-12-04T07:31:15;19.17;;;12.30;;
19617;SDS011;9956;51.006;13.670;2023-12-04T07:36:16;18.08;;;11.25;;
19617;SDS011;9956;51.006;13.670;2023-12-04T07:41:17;40.58;;;24.45;;
19617;SDS011;9956;51.006;13.670;2023-12-04T07:46:18;30.83;;;18.27;;
19617;SDS011;9956;51.006;13.670;2023-12-04T07:51:18;23.15;;;13.65;;
19617;SDS011;9956;51.006;13.670;2023-12-04T07:56:19;18.33;;;12.23;;
19617;SDS011;9956;51.006;13.670;2023-12-04T08:01:19;22.60;;;12.43;;
19617;SDS011;9956;51.006;13.670;2023-12-04T08:06:19;16.75;;;11.27;;
19617;SDS011;9956;51.006;13.670;2023-12-04T08:11:20;15.70;;;9.88;;
19617;SDS011;9956;51.006;13.670;2023-12-04T08:16:20;10.93;;;7.93;;
19617;SDS011;9956;51.006;13.670;2023-12-04T08:21:21;10.45;;;7.90;;
19617;SDS011;9956;51.006;13.670;2023-12-04T08:26:22;7.20;;;5.70;;
19617;SDS011;9956;51.006;13.670;2023-12-04T08:31:23;7.85;;;5.40;;
19617;SDS011;9956;51.006;13.670;2023-12-04T08:36:24;6.38;;;5.05;;
19617;SDS011;9956;51.006;13.670;2023-12-04T08:41:24;5.90;;;4.75;;
19617;SDS011;9956;51.006;13.670;2023-12-04T08:46:25;7.47;;;5.68;;
19617;SDS011;9956;51.006;13.670;2023-12-04T08:51:25;5.65;;;4.75;;
19617;SDS011;9956;51.006;13.670;2023-12-04T08:56:26;6.85;;;5.35;;
19617;SDS011;9956;51.006;13.670;2023-12-04T09:01:26;7.60;;;5.25;;
19617;SDS011;9956;51.006;13.670;2023-12-04T09:06:27;7.40;;;5.22;;
19617;SDS011;9956;51.006;13.670;2023-12-04T09:11:28;6.70;;;5.53;;
19617;SDS011;9956;51.006;13.670;2023-12-04T09:16:29;8.20;;;5.75;;
19617;SDS011;9956;51.006;13.670;2023-12-04T09:21:29;8.85;;;5.90;;
19617;SDS011;9956;51.006;13.670;2023-12-04T09:26:30;7.55;;;5.72;;
19617;SDS011;9956;51.006;13.670;2023-12-04T09:31:30;7.15;;;5.78;;
19617;SDS011;9956;51.006;13.670;2023-12-04T09:36:33;7.07;;;6.00;;
19617;SDS011;9956;51.006;13.670;2023-12-04T09:41:34;7.57;;;6.00;;
19617;SDS011;9956;51.006;13.670;2023-12-04T09:46:35;7.60;;;6.35;;
19617;SDS011;9956;51.006;13.670;2023-12-04T09:51:36;6.25;;;5.65;;
19617;SDS011;9956;51.006;13.670;2023-12-04T09:56:38;9.45;;;6.72;;
19617;SDS011;9956;51.006;13.670;2023-12-04T10:01:39;10.07;;;6.50;;
19617;SDS011;9956;51.006;13.670;2023-12-04T10:06:40;7.22;;;6.22;;
19617;SDS011;9956;51.006;13.670;2023-12-04T10:11:41;6.82;;;5.53;;
19617;SDS011;9956;51.006;13.670;2023-12-04T10:16:41;8.48;;;6.28;;
19617;SDS011;9956;51.006;13.670;2023-12-04T10:21:42;6.68;;;5.45;;
19617;SDS011;9956;51.006;13.670;2023-12-04T10:26:49;5.82;;;5.00;;
19617;SDS011;9956;51.006;13.670;2023-12-04T10:31:51;7.80;;;6.03;;
19617;SDS011;9956;51.006;13.670;2023-12-04T10:36:52;6.05;;;4.80;;
19617;SDS011;9956;51.006;13.670;2023-12-04T10:42:00;5.45;;;4.95;;
19617;SDS011;9956;51.006;13.670;2023-12-04T10:47:02;6.22;;;5.10;;
19617;SDS011;9956;51.006;13.670;2023-12-04T10:52:03;7.22;;;5.75;;
19617;SDS011;9956;51.006;13.670;2023-12-04T10:57:05;7.18;;;5.72;;
19617;SDS011;9956;51.006;13.670;2023-12-04T11:02:06;7.35;;;6.38;;
19617;SDS011;9956;51.006;13.670;2023-12-04T11:07:09;6.55;;;5.43;;
19617;SDS011;9956;51.006;13.670;2023-12-04T11:12:11;7.20;;;4.68;;
19617;SDS011;9956;51.006;13.670;2023-12-04T11:17:14;6.40;;;4.95;;
19617;SDS011;9956;51.006;13.670;2023-12-04T11:22:17;5.45;;;4.80;;
19617;SDS011;9956;51.006;13.670;2023-12-04T11:27:27;7.63;;;5.60;;
19617;SDS011;9956;51.006;13.670;2023-12-04T11:32:28;6.03;;;4.60;;
19617;SDS011;9956;51.006;13.670;2023-12-04T11:37:28;6.40;;;4.43;;
19617;SDS011;9956;51.006;13.670;2023-12-04T11:42:30;8.38;;;5.13;;
19617;SDS011;9956;51.006;13.670;2023-12-04T11:47:30;7.07;;;5.20;;
19617;SDS011;9956;51.006;13.670;2023-12-04T11:52:33;11.23;;;7.93;;
19617;SDS011;9956;51.006;13.670;2023-12-04T11:57:38;10.65;;;7.38;;
19617;SDS011;9956;51.006;13.670;2023-12-04T12:02:46;7.70;;;5.78;;
19617;SDS011;9956;51.006;13.670;2023-12-04T12:07:53;6.70;;;4.75;;
19617;SDS011;9956;51.006;13.670;2023-12-04T12:12:55;7.38;;;5.00;;
19617;SDS011;9956;51.006;13.670;2023-12-04T12:17:56;6.30;;;4.90;;
19617;SDS011;9956;51.006;13.670;2023-12-04T12:22:57;6.25;;;4.35;;
19617;SDS011;9956;51.006;13.670;2023-12-04T12:27:57;7.95;;;5.07;;
19617;SDS011;9956;51.006;13.670;2023-12-04T12:33:02;9.20;;;5.60;;
19617;SDS011;9956;51.006;13.670;2023-12-04T12:38:02;7.93;;;5.95;;
19617;SDS011;9956;51.006;13.670;2023-12-04T12:43:04;10.55;;;7.97;;
19617;SDS011;9956;51.006;13.670;2023-12-04T12:48:14;11.05;;;7.63;;
19617;SDS011;9956;51.006;13.670;2023-12-04T12:53:17;13.13;;;8.32;;
19617;SDS011;9956;51.006;13.670;2023-12-04T12:58:24;10.68;;;7.80;;
19617;SDS011;9956;51.006;13.670;2023-12-04T13:03:24;10.90;;;7.80;;
19617;SDS011;9956;51.006;13.670;2023-12-04T13:08:25;10.27;;;8.13;;
19617;SDS011;9956;51.006;13.670;2023-12-04T13:13:25;13.05;;;9.10;;
19617;SDS011;9956;51.006;13.670;2023-12-04T13:18:27;10.38;;;8.90;;
19617;SDS011;9956;51.006;13.670;2023-12-04T13:23:27;9.45;;;7.03;;
19617;SDS011;9956;51.006;13.670;2023-12-04T13:28:28;9.30;;;6.57;;
19617;SDS011;9956;51.006;13.670;2023-12-04T13:33:28;6.95;;;5.38;;
19617;SDS011;9956;51.006;13.670;2023-12-04T13:38:29;6.70;;;5.28;;
19617;SDS011;9956;51.006;13.670;2023-12-04T13:43:29;8.70;;;6.22;;
19617;SDS011;9956;51.006;13.670;2023-12-04T13:48:51;6.43;;;5.28;;
19617;SDS011;9956;51.006;13.670;2023-12-04T13:53:51;8.90;;;6.65;;
19617;SDS011;9956;51.006;13.670;2023-12-04T13:58:56;9.90;;;7.13;;
19617;SDS011;9956;51.006;13.670;2023-12-04T14:03:57;9.07;;;6.25;;
19617;SDS011;9956;51.006;13.670;2023-12-04T14:09:04;8.10;;;6.03;;
19617;SDS011;9956;51.006;13.670;2023-12-04T14:14:14;10.35;;;6.97;;
19617;SDS011;9956;51.006;13.670;2023-12-04T14:19:14;13.50;;;8.50;;
19617;SDS011;9956;51.006;13.670;2023-12-04T14:24:17;12.30;;;7.97;;
19617;SDS011;9956;51.006;13.670;2023-12-04T14:29:18;13.35;;;9.63;;
19617;SDS011;9956;51.006;13.670;2023-12-04T14:34:18;10.27;;;8.23;;
19617;SDS011;9956;51.006;13.670;2023-12-04T14:39:19;9.27;;;7.28;;
19617;SDS011;9956;51.006;13.670;2023-12-04T14:44:19;11.52;;;8.15;;
19617;SDS011;9956;51.006;13.670;2023-12-04T14:49:20;13.18;;;8.30;;
19617;SDS011;9956;51.006;13.670;2023-12-04T14:54:20;12.80;;;8.95;;
19617;SDS011;9956;51.006;13.670;2023-12-04T14:59:37;11.27;;;8.35;;
19617;SDS011;9956;51.006;13.670;2023-12-04T15:04:56;12.30;;;8.18;;
19617;SDS011;9956;51.006;13.670;2023-12-04T15:10:25;13.25;;;8.48;;
19617;SDS011;9956;51.006;13.670;2023-12-04T15:15:41;12.68;;;8.63;;
19617;SDS011;9956;51.006;13.670;2023-12-04T15:21:00;12.38;;;8.68;;
19617;SDS011;9956;51.006;13.670;2023-12-04T15:26:00;13.38;;;8.70;;
19617;SDS011;9956;51.006;13.670;2023-12-04T15:31:02;12.80;;;8.20;;
19617;SDS011;9956;51.006;13.670;2023-12-04T15:36:03;14.45;;;9.00;;
19617;SDS011;9956;51.006;13.670;2023-12-04T15:41:04;12.50;;;9.05;;
19617;SDS011;9956;51.006;13.670;2023-12-04T15:46:05;11.73;;;8.38;;
19617;SDS011;9956;51.006;13.670;2023-12-04T15:51:06;12.32;;;8.77;;
19617;SDS011;9956;51.006;13.670;2023-12-04T15:56:07;11.57;;;8.65;;
19617;SDS011;9956;51.006;13.670;2023-12-04T16:06:44;10.73;;;7.70;;
19617;SDS011;9956;51.006;13.670;2023-12-04T16:11:45;13.57;;;8.70;;
19617;SDS011;9956;51.006;13.670;2023-12-04T16:16:46;12.23;;;9.18;;
19617;SDS011;9956;51.006;13.670;2023-12-04T16:21:47;13.60;;;9.02;;
19617;SDS011;9956;51.006;13.670;2023-12-04T16:26:47;14.52;;;9.98;;
19617;SDS011;9956;51.006;13.670;2023-12-04T16:31:51;15.43;;;11.23;;
19617;SDS011;9956;51.006;13.670;2023-12-04T16:36:52;17.63;;;10.85;;
19617;SDS011;9956;51.006;13.670;2023-12-04T16:41:52;15.18;;;10.05;;
19617;SDS011;9956;51.006;13.670;2023-12-04T16:46:54;18.67;;;11.27;;
19617;SDS011;9956;51.006;13.670;2023-12-04T16:51:57;16.98;;;10.15;;
19617;SDS011;9956;51.006;13.670;2023-12-04T16:56:57;16.83;;;11.50;;
19617;SDS011;9956;51.006;13.670;2023-12-04T17:01:59;14.45;;;10.90;;
19617;SDS011;9956;51.006;13.670;2023-12-04T17:06:59;15.15;;;9.98;;
19617;SDS011;9956;51.006;13.670;2023-12-04T17:11:59;15.15;;;10.35;;
19617;SDS011;9956;51.006;13.670;2023-12-04T17:17:00;16.05;;;11.32;;
19617;SDS011;9956;51.006;13.670;2023-12-04T17:22:00;13.27;;;10.20;;
19617;SDS011;9956;51.006;13.670;2023-12-04T17:27:01;15.80;;;10.80;;
19617;SDS011;9956;51.006;13.670;2023-12-04T17:32:01;18.77;;;10.85;;
19617;SDS011;9956;51.006;13.670;2023-12-04T17:37:02;18.80;;;12.93;;
19617;SDS011;9956;51.006;13.670;2023-12-04T17:42:03;17.70;;;12.00;;
19617;SDS011;9956;51.006;13.670;2023-12-04T17:47:04;18.42;;;13.00;;
19617;SDS011;9956;51.006;13.670;2023-12-04T17:52:05;18.40;;;12.95;;
19617;SDS011;9956;51.006;13.670;2023-12-04T17:57:06;17.90;;;12.68;;
19617;SDS011;9956;51.006;13.670;2023-12-04T18:02:07;19.02;;;13.68;;
19617;SDS011;9956;51.006;13.670;2023-12-04T18:07:09;20.35;;;13.23;;
19617;SDS011;9956;51.006;13.670;2023-12-04T18:12:09;20.05;;;13.35;;
19617;SDS011;9956;51.006;13.670;2023-12-04T18:17:10;19.60;;;13.18;;
19617;SDS011;9956;51.006;13.670;2023-12-04T18:22:10;18.33;;;13.32;;
19617;SDS011;9956;51.006;13.670;2023-12-04T18:27:11;20.58;;;13.68;;
19617;SDS011;9956;51.006;13.670;2023-12-04T18:32:13;19.15;;;13.05;;
19617;SDS011;9956;51.006;13.670;2023-12-04T18:37:18;18.55;;;13.15;;
19617;SDS011;9956;51.006;13.670;2023-12-04T18:42:22;23.23;;;14.35;;
19617;SDS011;9956;51.006;13.670;2023-12-04T18:47:22;22.02;;;14.65;;
19617;SDS011;9956;51.006;13.670;2023-12-04T18:52:25;20.58;;;14.27;;
19617;SDS011;9956;51.006;13.670;2023-12-04T18:57:26;22.05;;;14.15;;
19617;SDS011;9956;51.006;13.670;2023-12-04T19:02:26;19.38;;;14.38;;
19617;SDS011;9956;51.006;13.670;2023-12-04T19:07:27;21.35;;;14.55;;
19617;SDS011;9956;51.006;13.670;2023-12-04T19:12:27;20.75;;;14.20;;
19617;SDS011;9956;51.006;13.670;2023-12-04T19:17:27;21.27;;;15.80;;
19617;SDS011;9956;51.006;13.670;2023-12-04T19:22:28;22.55;;;14.55;;
19617;SDS011;9956;51.006;13.670;2023-12-04T19:27:29;21.35;;;13.93;;
19617;SDS011;9956;51.006;13.670;2023-12-04T19:32:29;20.10;;;14.85;;
19617;SDS011;9956;51.006;13.670;2023-12-04T19:37:30;22.20;;;15.35;;
19617;SDS011;9956;51.006;13.670;2023-12-04T19:42:30;23.08;;;15.35;;
19617;SDS011;9956;51.006;13.670;2023-12-04T19:47:31;21.95;;;15.85;;
19617;SDS011;9956;51.006;13.670;2023-12-04T19:52:31;22.92;;;16.58;;
19617;SDS011;9956;51.006;13.670;2023-12-04T19:57:31;22.83;;;16.23;;
19617;SDS011;9956;51.006;13.670;2023-12-04T20:02:34;22.70;;;15.73;;
19617;SDS011;9956;51.006;13.670;2023-12-04T20:07:36;21.95;;;15.75;;
19617;SDS011;9956;51.006;13.670;2023-12-04T20:12:36;21.55;;;16.08;;
19617;SDS011;9956;51.006;13.670;2023-12-04T20:17:37;22.27;;;16.10;;
19617;SDS011;9956;51.006;13.670;2023-12-04T20:22:37;26.23;;;16.02;;
19617;SDS011;9956;51.006;13.670;2023-12-04T20:27:38;23.75;;;16.08;;
19617;SDS011;9956;51.006;13.670;2023-12-04T20:32:38;23.27;;;15.77;;
19617;SDS011;9956;51.006;13.670;2023-12-04T20:37:39;24.77;;;17.00;;
19617;SDS011;9956;51.006;13.670;2023-12-04T20:42:39;22.98;;;15.90;;
19617;SDS011;9956;51.006;13.670;2023-12-04T20:47:40;21.42;;;15.52;;
19617;SDS011;9956;51.006;13.670;2023-12-04T20:52:40;23.35;;;15.32;;
19617;SDS011;9956;51.006;13.670;2023-12-04T20:57:41;22.20;;;15.15;;
19617;SDS011;9956;51.006;13.670;2023-12-04T21:02:42;21.75;;;16.05;;
19617;SDS011;9956;51.006;13.670;2023-12-04T21:07:42;21.92;;;15.27;;
19617;SDS011;9956;51.006;13.670;2023-12-04T21:12:43;22.52;;;15.75;;
19617;SDS011;9956;51.006;13.670;2023-12-04T21:17:44;21.88;;;15.52;;
19617;SDS011;9956;51.006;13.670;2023-12-04T21:22:44;22.73;;;15.73;;
19617;SDS011;9956;51.006;13.670;2023-12-04T21:27:45;21.48;;;15.02;;
19617;SDS011;9956;51.006;13.670;2023-12-04T21:32:45;20.90;;;15.50;;
19617;SDS011;9956;51.006;13.670;2023-12-04T21:37:46;22.38;;;15.65;;
19617;SDS011;9956;51.006;13.670;2023-12-04T21:42:46;21.73;;;15.25;;
19617;SDS011;9956;51.006;13.670;2023-12-04T21:47:47;23.58;;;16.98;;
19617;SDS011;9956;51.006;13.670;2023-12-04T21:52:47;21.35;;;15.20;;
19617;SDS011;9956;51.006;13.670;2023-12-04T21:57:48;23.48;;;15.23;;
19617;SDS011;9956;51.006;13.670;2023-12-04T22:02:48;20.08;;;15.02;;
19617;SDS011;9956;51.006;13.670;2023-12-04T22:07:49;20.63;;;15.15;;
19617;SDS011;9956;51.006;13.670;2023-12-04T22:12:49;23.00;;;15.70;;
19617;SDS011;9956;51.006;13.670;2023-12-04T22:17:50;20.38;;;14.95;;
19617;SDS011;9956;51.006;13.670;2023-12-04T22:22:54;21.75;;;15.32;;
19617;SDS011;9956;51.006;13.670;2023-12-04T22:27:55;19.42;;;14.45;;
19617;SDS011;9956;51.006;13.670;2023-12-04T22:32:55;18.38;;;13.45;;
19617;SDS011;9956;51.006;13.670;2023-12-04T22:37:56;18.50;;;14.02;;
19617;SDS011;9956;51.006;13.670;2023-12-04T22:43:00;19.13;;;14.00;;
19617;SDS011;9956;51.006;13.670;2023-12-04T22:48:00;17.20;;;12.80;;
19617;SDS011;9956;51.006;13.670;2023-12-04T22:53:01;17.75;;;13.27;;
19617;SDS011;9956;51.006;13.670;2023-12-04T22:58:01;22.02;;;14.93;;
19617;SDS011;9956;51.006;13.670;2023-12-04T23:03:02;16.08;;;12.27;;
19617;SDS011;9956;51.006;13.670;2023-12-04T23:08:04;19.77;;;14.60;;
19617;SDS011;9956;51.006;13.670;2023-12-04T23:13:04;18.58;;;13.50;;
19617;SDS011;9956;51.006;13.670;2023-12-04T23:18:05;17.55;;;13.63;;
19617;SDS011;9956;51.006;13.670;2023-12-04T23:23:06;18.50;;;13.70;;
19617;SDS011;9956;51.006;13.670;2023-12-04T23:28:06;18.30;;;14.00;;
19617;SDS011;9956;51.006;13.670;2023-12-04T23:33:07;18.52;;;13.60;;
19617;SDS011;9956;51.006;13.670;2023-12-04T23:38:07;17.65;;;13.27;;
19617;SDS011;9956;51.006;13.670;2023-12-04T23:43:08;17.70;;;13.68;;
19617;SDS011;9956;51.006;13.670;2023-12-04T23:48:08;19.08;;;14.20;;
19617;SDS011;9956;51.006;13.670;2023-12-04T23:53:09;18.50;;;13.60;;
19617;SDS011;9956;51.006;13.670;2023-12-04T23:58:09;21.42;;;14.82;;
